sensor_id;sensor_type;location;lat;lon;timestamp;P1;durP1;ratioP1;P2;durP2;ratioP2
3185;SDS011;1604;53.700;10.252;2024-03-02T00:02:40;48.57;;;26.23;;
3185;SDS011;1604;53.700;10.252;2024-03-02T00:05:42;48.27;;;24.90;;
3185;SDS011;1604;53.700;10.252;2024-03-02T00:08:44;50.53;;;26.80;;
3185;SDS011;1604;53.700;10.252;2024-03-02T00:11:46;56.20;;;26.03;;
3185;SDS011;1604;53.700;10.252;2024-03-02T00:14:49;55.00;;;27.60;;
3185;SDS011;1604;53.700;10.252;2024-03-02T00:17:52;58.93;;;28.17;;
3185;SDS011;1604;53.700;10.252;2024-03-02T00:20:56;53.60;;;26.83;;
3185;SDS011;1604;53.700;10.252;2024-03-02T00:23:59;61.53;;;26.50;;
3185;SDS011;1604;53.700;10.252;2024-03-02T00:27:03;53.53;;;25.97;;
3185;SDS011;1604;53.700;10.252;2024-03-02T00:30:12;59.13;;;25.90;;
3185;SDS011;1604;53.700;10.252;2024-03-02T00:33:44;48.47;;;27.60;;
3185;SDS011;1604;53.700;10.252;2024-03-02T00:36:46;60.27;;;29.10;;
3185;SDS011;1604;53.700;10.252;2024-03-02T00:39:49;59.27;;;28.50;;
3185;SDS011;1604;53.700;10.252;2024-03-02T00:42:51;52.10;;;25.83;;
3185;SDS011;1604;53.700;10.252;2024-03-02T00:45:54;49.83;;;27.20;;
3185;SDS011;1604;53.700;10.252;2024-03-02T00:48:56;51.50;;;25.30;;
3185;SDS011;1604;53.700;10.252;2024-03-02T00:52:00;59.00;;;28.30;;
3185;SDS011;1604;53.700;10.252;2024-03-02T00:55:02;61.67;;;27.70;;
3185;SDS011;1604;53.700;10.252;2024-03-02T00:58:05;52.00;;;28.37;;
3185;SDS011;1604;53.700;10.252;2024-03-02T01:01:09;56.97;;;28.60;;
3185;SDS011;1604;53.700;10.252;2024-03-02T01:04:11;58.10;;;29.27;;
3185;SDS011;1604;53.700;10.252;2024-03-02T01:07:14;56.53;;;30.77;;
3185;SDS011;1604;53.700;10.252;2024-03-02T01:10:16;65.97;;;30.67;;
3185;SDS011;1604;53.700;10.252;2024-03-02T01:13:18;67.00;;;33.47;;
3185;SDS011;1604;53.700;10.252;2024-03-02T01:16:21;59.10;;;30.80;;
3185;SDS011;1604;53.700;10.252;2024-03-02T01:19:23;66.53;;;31.80;;
3185;SDS011;1604;53.700;10.252;2024-03-02T01:22:25;67.53;;;29.60;;
3185;SDS011;1604;53.700;10.252;2024-03-02T01:25:27;66.10;;;32.17;;
3185;SDS011;1604;53.700;10.252;2024-03-02T01:28:29;75.33;;;31.50;;
3185;SDS011;1604;53.700;10.252;2024-03-02T01:31:32;65.60;;;31.73;;
3185;SDS011;1604;53.700;10.252;2024-03-02T01:34:34;65.23;;;31.13;;
3185;SDS011;1604;53.700;10.252;2024-03-02T01:37:36;65.47;;;31.57;;
3185;SDS011;1604;53.700;10.252;2024-03-02T01:40:38;57.90;;;29.20;;
3185;SDS011;1604;53.700;10.252;2024-03-02T01:43:40;67.10;;;33.07;;
3185;SDS011;1604;53.700;10.252;2024-03-02T01:46:43;64.53;;;30.93;;
3185;SDS011;1604;53.700;10.252;2024-03-02T01:49:46;66.30;;;33.97;;
3185;SDS011;1604;53.700;10.252;2024-03-02T01:52:48;71.00;;;32.53;;
3185;SDS011;1604;53.700;10.252;2024-03-02T01:55:49;62.13;;;32.40;;
3185;SDS011;1604;53.700;10.252;2024-03-02T01:58:51;69.90;;;30.10;;
3185;SDS011;1604;53.700;10.252;2024-03-02T02:01:55;62.67;;;29.47;;
3185;SDS011;1604;53.700;10.252;2024-03-02T02:04:57;59.77;;;29.97;;
3185;SDS011;1604;53.700;10.252;2024-03-02T02:07:59;62.13;;;28.67;;
3185;SDS011;1604;53.700;10.252;2024-03-02T02:11:02;56.53;;;30.20;;
3185;SDS011;1604;53.700;10.252;2024-03-02T02:14:05;63.13;;;31.80;;
3185;SDS011;1604;53.700;10.252;2024-03-02T02:17:09;57.67;;;31.23;;
3185;SDS011;1604;53.700;10.252;2024-03-02T02:20:12;68.80;;;31.63;;
3185;SDS011;1604;53.700;10.252;2024-03-02T02:23:15;60.27;;;30.70;;
3185;SDS011;1604;53.700;10.252;2024-03-02T02:26:18;56.47;;;30.40;;
3185;SDS011;1604;53.700;10.252;2024-03-02T02:29:20;61.07;;;31.90;;
3185;SDS011;1604;53.700;10.252;2024-03-02T02:32:22;77.73;;;34.57;;
3185;SDS011;1604;53.700;10.252;2024-03-02T02:35:24;63.83;;;32.30;;
3185;SDS011;1604;53.700;10.252;2024-03-02T02:38:27;65.37;;;31.00;;
3185;SDS011;1604;53.700;10.252;2024-03-02T02:41:29;67.43;;;31.40;;
3185;SDS011;1604;53.700;10.252;2024-03-02T02:44:31;58.40;;;29.87;;
3185;SDS011;1604;53.700;10.252;2024-03-02T02:47:34;57.63;;;30.17;;
3185;SDS011;1604;53.700;10.252;2024-03-02T02:50:36;62.17;;;32.47;;
3185;SDS011;1604;53.700;10.252;2024-03-02T02:53:39;61.57;;;31.67;;
3185;SDS011;1604;53.700;10.252;2024-03-02T02:56:41;71.17;;;31.60;;
3185;SDS011;1604;53.700;10.252;2024-03-02T02:59:43;68.07;;;33.37;;
3185;SDS011;1604;53.700;10.252;2024-03-02T03:02:46;61.50;;;30.40;;
3185;SDS011;1604;53.700;10.252;2024-03-02T03:05:49;60.97;;;30.30;;
3185;SDS011;1604;53.700;10.252;2024-03-02T03:08:52;70.90;;;32.10;;
3185;SDS011;1604;53.700;10.252;2024-03-02T03:11:54;69.97;;;32.80;;
3185;SDS011;1604;53.700;10.252;2024-03-02T03:14:59;62.13;;;31.70;;
3185;SDS011;1604;53.700;10.252;2024-03-02T03:18:04;70.63;;;31.30;;
3185;SDS011;1604;53.700;10.252;2024-03-02T03:21:07;65.33;;;32.30;;
3185;SDS011;1604;53.700;10.252;2024-03-02T03:24:11;67.77;;;29.77;;
3185;SDS011;1604;53.700;10.252;2024-03-02T03:27:12;65.37;;;32.27;;
3185;SDS011;1604;53.700;10.252;2024-03-02T03:30:15;58.93;;;31.43;;
3185;SDS011;1604;53.700;10.252;2024-03-02T03:33:17;62.80;;;29.10;;
3185;SDS011;1604;53.700;10.252;2024-03-02T03:36:18;64.30;;;29.83;;
3185;SDS011;1604;53.700;10.252;2024-03-02T03:39:22;66.57;;;31.90;;
3185;SDS011;1604;53.700;10.252;2024-03-02T03:42:24;56.90;;;29.33;;
3185;SDS011;1604;53.700;10.252;2024-03-02T03:45:26;62.73;;;29.10;;
3185;SDS011;1604;53.700;10.252;2024-03-02T03:48:28;67.00;;;33.10;;
3185;SDS011;1604;53.700;10.252;2024-03-02T03:51:30;60.93;;;31.57;;
3185;SDS011;1604;53.700;10.252;2024-03-02T03:54:34;60.40;;;30.30;;
3185;SDS011;1604;53.700;10.252;2024-03-02T03:57:37;60.47;;;30.63;;
3185;SDS011;1604;53.700;10.252;2024-03-02T04:00:39;52.00;;;26.80;;
3185;SDS011;1604;53.700;10.252;2024-03-02T04:03:41;60.90;;;29.13;;
3185;SDS011;1604;53.700;10.252;2024-03-02T04:06:43;58.20;;;29.37;;
3185;SDS011;1604;53.700;10.252;2024-03-02T04:09:46;63.30;;;30.47;;
3185;SDS011;1604;53.700;10.252;2024-03-02T04:12:49;65.07;;;31.17;;
3185;SDS011;1604;53.700;10.252;2024-03-02T04:15:51;59.63;;;28.13;;
3185;SDS011;1604;53.700;10.252;2024-03-02T04:18:54;58.97;;;30.07;;
3185;SDS011;1604;53.700;10.252;2024-03-02T04:21:55;56.80;;;29.67;;
3185;SDS011;1604;53.700;10.252;2024-03-02T04:24:59;61.30;;;30.03;;
3185;SDS011;1604;53.700;10.252;2024-03-02T04:28:01;52.57;;;27.87;;
3185;SDS011;1604;53.700;10.252;2024-03-02T04:31:03;61.63;;;28.03;;
3185;SDS011;1604;53.700;10.252;2024-03-02T04:34:05;60.57;;;29.73;;
3185;SDS011;1604;53.700;10.252;2024-03-02T04:37:07;56.43;;;31.10;;
3185;SDS011;1604;53.700;10.252;2024-03-02T04:40:11;57.90;;;30.60;;
3185;SDS011;1604;53.700;10.252;2024-03-02T04:43:13;54.80;;;28.53;;
3185;SDS011;1604;53.700;10.252;2024-03-02T04:46:16;54.10;;;28.23;;
3185;SDS011;1604;53.700;10.252;2024-03-02T04:49:18;56.33;;;30.10;;
3185;SDS011;1604;53.700;10.252;2024-03-02T04:52:20;57.60;;;28.23;;
3185;SDS011;1604;53.700;10.252;2024-03-02T04:55:23;56.53;;;28.13;;
3185;SDS011;1604;53.700;10.252;2024-03-02T04:58:50;52.90;;;29.67;;
3185;SDS011;1604;53.700;10.252;2024-03-02T05:01:52;54.33;;;28.47;;
3185;SDS011;1604;53.700;10.252;2024-03-02T05:04:54;54.67;;;26.33;;
3185;SDS011;1604;53.700;10.252;2024-03-02T05:07:56;55.13;;;27.63;;
3185;SDS011;1604;53.700;10.252;2024-03-02T05:10:59;54.30;;;29.10;;
3185;SDS011;1604;53.700;10.252;2024-03-02T05:14:21;52.30;;;27.53;;
3185;SDS011;1604;53.700;10.252;2024-03-02T05:17:23;55.30;;;28.27;;
3185;SDS011;1604;53.700;10.252;2024-03-02T05:20:25;60.77;;;28.20;;
3185;SDS011;1604;53.700;10.252;2024-03-02T05:23:27;50.90;;;28.80;;
3185;SDS011;1604;53.700;10.252;2024-03-02T05:26:30;56.17;;;28.67;;
3185;SDS011;1604;53.700;10.252;2024-03-02T05:29:32;55.40;;;26.80;;
3185;SDS011;1604;53.700;10.252;2024-03-02T05:32:34;62.03;;;32.03;;
3185;SDS011;1604;53.700;10.252;2024-03-02T05:35:36;51.13;;;27.70;;
3185;SDS011;1604;53.700;10.252;2024-03-02T05:38:38;50.43;;;28.53;;
3185;SDS011;1604;53.700;10.252;2024-03-02T05:41:42;59.30;;;29.43;;
3185;SDS011;1604;53.700;10.252;2024-03-02T05:44:44;56.07;;;30.47;;
3185;SDS011;1604;53.700;10.252;2024-03-02T05:47:45;56.83;;;28.03;;
3185;SDS011;1604;53.700;10.252;2024-03-02T05:50:47;55.60;;;28.67;;
3185;SDS011;1604;53.700;10.252;2024-03-02T05:53:49;49.77;;;27.67;;
3185;SDS011;1604;53.700;10.252;2024-03-02T05:56:53;61.07;;;29.73;;
3185;SDS011;1604;53.700;10.252;2024-03-02T05:59:54;56.37;;;28.20;;
3185;SDS011;1604;53.700;10.252;2024-03-02T06:02:57;58.30;;;31.27;;
3185;SDS011;1604;53.700;10.252;2024-03-02T06:05:59;60.10;;;27.50;;
3185;SDS011;1604;53.700;10.252;2024-03-02T06:09:02;61.47;;;30.93;;
3185;SDS011;1604;53.700;10.252;2024-03-02T06:12:07;59.00;;;29.80;;
3185;SDS011;1604;53.700;10.252;2024-03-02T06:15:09;53.33;;;29.60;;
3185;SDS011;1604;53.700;10.252;2024-03-02T06:18:11;56.20;;;30.60;;
3185;SDS011;1604;53.700;10.252;2024-03-02T06:21:13;59.70;;;28.57;;
3185;SDS011;1604;53.700;10.252;2024-03-02T06:24:15;72.37;;;33.93;;
3185;SDS011;1604;53.700;10.252;2024-03-02T06:27:18;48.97;;;26.63;;
3185;SDS011;1604;53.700;10.252;2024-03-02T06:30:20;53.47;;;27.83;;
3185;SDS011;1604;53.700;10.252;2024-03-02T06:33:22;62.13;;;30.10;;
3185;SDS011;1604;53.700;10.252;2024-03-02T06:36:24;51.60;;;28.30;;
3185;SDS011;1604;53.700;10.252;2024-03-02T06:39:26;48.07;;;25.60;;
3185;SDS011;1604;53.700;10.252;2024-03-02T06:42:29;50.37;;;27.20;;
3185;SDS011;1604;53.700;10.252;2024-03-02T06:45:33;56.20;;;29.43;;
3185;SDS011;1604;53.700;10.252;2024-03-02T06:48:35;64.53;;;30.80;;
3185;SDS011;1604;53.700;10.252;2024-03-02T06:51:37;54.63;;;29.23;;
3185;SDS011;1604;53.700;10.252;2024-03-02T06:54:39;54.93;;;29.00;;
3185;SDS011;1604;53.700;10.252;2024-03-02T06:57:42;50.20;;;27.60;;
3185;SDS011;1604;53.700;10.252;2024-03-02T07:00:44;55.87;;;28.60;;
3185;SDS011;1604;53.700;10.252;2024-03-02T07:03:47;61.47;;;28.47;;
3185;SDS011;1604;53.700;10.252;2024-03-02T07:06:49;60.27;;;30.70;;
3185;SDS011;1604;53.700;10.252;2024-03-02T07:09:51;57.60;;;30.93;;
3185;SDS011;1604;53.700;10.252;2024-03-02T07:12:55;53.63;;;28.90;;
3185;SDS011;1604;53.700;10.252;2024-03-02T07:15:57;59.27;;;30.10;;
3185;SDS011;1604;53.700;10.252;2024-03-02T07:19:27;57.30;;;29.00;;
3185;SDS011;1604;53.700;10.252;2024-03-02T07:22:29;57.00;;;28.67;;
3185;SDS011;1604;53.700;10.252;2024-03-02T07:25:31;57.50;;;28.57;;
3185;SDS011;1604;53.700;10.252;2024-03-02T07:28:34;58.37;;;30.20;;
3185;SDS011;1604;53.700;10.252;2024-03-02T07:31:36;60.80;;;32.77;;
3185;SDS011;1604;53.700;10.252;2024-03-02T07:34:38;54.43;;;31.00;;
3185;SDS011;1604;53.700;10.252;2024-03-02T07:37:40;56.80;;;29.83;;
3185;SDS011;1604;53.700;10.252;2024-03-02T07:40:43;63.17;;;31.67;;
3185;SDS011;1604;53.700;10.252;2024-03-02T07:43:46;56.60;;;29.73;;
3185;SDS011;1604;53.700;10.252;2024-03-02T07:46:48;52.03;;;26.83;;
3185;SDS011;1604;53.700;10.252;2024-03-02T07:49:51;51.27;;;27.07;;
3185;SDS011;1604;53.700;10.252;2024-03-02T07:52:53;57.00;;;29.23;;
3185;SDS011;1604;53.700;10.252;2024-03-02T07:55:54;50.27;;;27.43;;
3185;SDS011;1604;53.700;10.252;2024-03-02T07:59:03;51.77;;;27.47;;
3185;SDS011;1604;53.700;10.252;2024-03-02T08:02:06;49.80;;;27.30;;
3185;SDS011;1604;53.700;10.252;2024-03-02T08:05:08;46.17;;;24.90;;
3185;SDS011;1604;53.700;10.252;2024-03-02T08:08:10;50.77;;;26.53;;
3185;SDS011;1604;53.700;10.252;2024-03-02T08:11:12;48.30;;;25.37;;
3185;SDS011;1604;53.700;10.252;2024-03-02T08:14:16;45.90;;;25.40;;
3185;SDS011;1604;53.700;10.252;2024-03-02T08:17:18;54.50;;;27.90;;
3185;SDS011;1604;53.700;10.252;2024-03-02T08:20:20;51.63;;;27.20;;
3185;SDS011;1604;53.700;10.252;2024-03-02T08:23:22;49.50;;;27.70;;
3185;SDS011;1604;53.700;10.252;2024-03-02T08:26:24;56.93;;;27.80;;
3185;SDS011;1604;53.700;10.252;2024-03-02T08:29:30;45.23;;;25.83;;
3185;SDS011;1604;53.700;10.252;2024-03-02T08:32:32;50.73;;;28.27;;
3185;SDS011;1604;53.700;10.252;2024-03-02T08:35:34;49.47;;;26.17;;
3185;SDS011;1604;53.700;10.252;2024-03-02T08:38:36;45.27;;;24.87;;
3185;SDS011;1604;53.700;10.252;2024-03-02T08:41:39;50.37;;;26.73;;
3185;SDS011;1604;53.700;10.252;2024-03-02T08:44:42;39.10;;;22.70;;
3185;SDS011;1604;53.700;10.252;2024-03-02T08:47:44;44.90;;;23.10;;
3185;SDS011;1604;53.700;10.252;2024-03-02T08:50:46;50.40;;;25.63;;
3185;SDS011;1604;53.700;10.252;2024-03-02T08:53:48;44.87;;;24.13;;
3185;SDS011;1604;53.700;10.252;2024-03-02T08:56:50;44.73;;;23.40;;
3185;SDS011;1604;53.700;10.252;2024-03-02T08:59:53;44.27;;;24.03;;
3185;SDS011;1604;53.700;10.252;2024-03-02T09:02:55;40.47;;;23.93;;
3185;SDS011;1604;53.700;10.252;2024-03-02T09:05:57;37.53;;;23.13;;
3185;SDS011;1604;53.700;10.252;2024-03-02T09:08:59;44.87;;;22.70;;
3185;SDS011;1604;53.700;10.252;2024-03-02T09:12:01;44.23;;;22.57;;
3185;SDS011;1604;53.700;10.252;2024-03-02T09:15:05;40.07;;;20.60;;
3185;SDS011;1604;53.700;10.252;2024-03-02T09:18:08;35.57;;;20.40;;
3185;SDS011;1604;53.700;10.252;2024-03-02T09:21:09;35.73;;;19.73;;
3185;SDS011;1604;53.700;10.252;2024-03-02T09:24:11;38.23;;;20.27;;
3185;SDS011;1604;53.700;10.252;2024-03-02T09:27:13;30.90;;;18.67;;
3185;SDS011;1604;53.700;10.252;2024-03-02T09:30:17;35.47;;;19.57;;
3185;SDS011;1604;53.700;10.252;2024-03-02T09:33:19;32.27;;;19.30;;
3185;SDS011;1604;53.700;10.252;2024-03-02T09:36:21;36.30;;;18.83;;
3185;SDS011;1604;53.700;10.252;2024-03-02T09:39:24;28.37;;;16.37;;
3185;SDS011;1604;53.700;10.252;2024-03-02T09:42:26;34.77;;;19.03;;
3185;SDS011;1604;53.700;10.252;2024-03-02T09:45:29;37.60;;;20.37;;
3185;SDS011;1604;53.700;10.252;2024-03-02T09:48:34;28.30;;;17.40;;
3185;SDS011;1604;53.700;10.252;2024-03-02T09:51:36;28.40;;;16.30;;
3185;SDS011;1604;53.700;10.252;2024-03-02T09:54:38;31.20;;;17.30;;
3185;SDS011;1604;53.700;10.252;2024-03-02T09:57:41;24.87;;;16.67;;
3185;SDS011;1604;53.700;10.252;2024-03-02T10:00:44;24.23;;;14.70;;
3185;SDS011;1604;53.700;10.252;2024-03-02T10:03:46;23.87;;;14.43;;
3185;SDS011;1604;53.700;10.252;2024-03-02T10:06:50;27.93;;;15.63;;
3185;SDS011;1604;53.700;10.252;2024-03-02T10:09:52;22.80;;;13.50;;
3185;SDS011;1604;53.700;10.252;2024-03-02T10:12:59;21.97;;;15.10;;
3185;SDS011;1604;53.700;10.252;2024-03-02T10:16:12;22.07;;;14.77;;
3185;SDS011;1604;53.700;10.252;2024-03-02T10:19:15;26.50;;;14.00;;
3185;SDS011;1604;53.700;10.252;2024-03-02T10:22:18;20.37;;;12.07;;
3185;SDS011;1604;53.700;10.252;2024-03-02T10:25:29;29.40;;;12.23;;
3185;SDS011;1604;53.700;10.252;2024-03-02T10:28:32;22.60;;;12.80;;
3185;SDS011;1604;53.700;10.252;2024-03-02T10:31:35;21.73;;;13.20;;
3185;SDS011;1604;53.700;10.252;2024-03-02T10:34:39;24.17;;;13.23;;
3185;SDS011;1604;53.700;10.252;2024-03-02T10:37:42;21.70;;;13.87;;
3185;SDS011;1604;53.700;10.252;2024-03-02T10:40:46;22.20;;;13.73;;
3185;SDS011;1604;53.700;10.252;2024-03-02T10:43:48;23.90;;;14.97;;
3185;SDS011;1604;53.700;10.252;2024-03-02T10:46:53;21.30;;;12.93;;
3185;SDS011;1604;53.700;10.252;2024-03-02T10:49:56;22.07;;;13.23;;
3185;SDS011;1604;53.700;10.252;2024-03-02T10:53:03;20.33;;;13.03;;
3185;SDS011;1604;53.700;10.252;2024-03-02T10:56:07;29.27;;;18.10;;
3185;SDS011;1604;53.700;10.252;2024-03-02T10:59:17;26.00;;;15.50;;
3185;SDS011;1604;53.700;10.252;2024-03-02T11:02:29;21.40;;;15.37;;
3185;SDS011;1604;53.700;10.252;2024-03-02T11:05:34;25.90;;;15.73;;
3185;SDS011;1604;53.700;10.252;2024-03-02T11:08:39;27.63;;;17.97;;
3185;SDS011;1604;53.700;10.252;2024-03-02T11:11:43;29.53;;;19.13;;
3185;SDS011;1604;53.700;10.252;2024-03-02T11:14:45;27.27;;;17.50;;
3185;SDS011;1604;53.700;10.252;2024-03-02T11:17:48;38.63;;;19.70;;
3185;SDS011;1604;53.700;10.252;2024-03-02T11:20:50;34.50;;;20.50;;
3185;SDS011;1604;53.700;10.252;2024-03-02T11:23:54;27.70;;;19.90;;
3185;SDS011;1604;53.700;10.252;2024-03-02T11:26:56;27.07;;;17.33;;
3185;SDS011;1604;53.700;10.252;2024-03-02T11:29:58;32.70;;;19.00;;
3185;SDS011;1604;53.700;10.252;2024-03-02T11:33:03;30.17;;;18.70;;
3185;SDS011;1604;53.700;10.252;2024-03-02T11:36:11;30.83;;;17.93;;
3185;SDS011;1604;53.700;10.252;2024-03-02T11:39:15;34.00;;;18.67;;
3185;SDS011;1604;53.700;10.252;2024-03-02T11:42:17;24.73;;;16.53;;
3185;SDS011;1604;53.700;10.252;2024-03-02T11:45:22;31.40;;;17.73;;
3185;SDS011;1604;53.700;10.252;2024-03-02T11:48:26;30.20;;;19.33;;
3185;SDS011;1604;53.700;10.252;2024-03-02T11:51:28;24.10;;;17.03;;
3185;SDS011;1604;53.700;10.252;2024-03-02T11:54:30;32.87;;;18.47;;
3185;SDS011;1604;53.700;10.252;2024-03-02T11:57:34;25.80;;;17.60;;
3185;SDS011;1604;53.700;10.252;2024-03-02T12:00:36;31.50;;;17.60;;
3185;SDS011;1604;53.700;10.252;2024-03-02T12:03:43;23.83;;;14.90;;
3185;SDS011;1604;53.700;10.252;2024-03-02T12:06:45;20.53;;;16.37;;
3185;SDS011;1604;53.700;10.252;2024-03-02T12:09:47;26.60;;;17.70;;
3185;SDS011;1604;53.700;10.252;2024-03-02T12:12:54;22.43;;;15.27;;
3185;SDS011;1604;53.700;10.252;2024-03-02T12:15:57;23.87;;;16.43;;
3185;SDS011;1604;53.700;10.252;2024-03-02T12:19:01;29.70;;;16.63;;
3185;SDS011;1604;53.700;10.252;2024-03-02T12:22:03;23.90;;;16.97;;
3185;SDS011;1604;53.700;10.252;2024-03-02T12:25:06;21.23;;;16.00;;
3185;SDS011;1604;53.700;10.252;2024-03-02T12:28:09;25.67;;;15.73;;
3185;SDS011;1604;53.700;10.252;2024-03-02T12:31:11;27.37;;;15.50;;
3185;SDS011;1604;53.700;10.252;2024-03-02T12:34:15;27.03;;;16.50;;
3185;SDS011;1604;53.700;10.252;2024-03-02T12:37:18;26.57;;;16.10;;
3185;SDS011;1604;53.700;10.252;2024-03-02T12:40:20;22.63;;;15.73;;
3185;SDS011;1604;53.700;10.252;2024-03-02T12:43:23;29.60;;;17.07;;
3185;SDS011;1604;53.700;10.252;2024-03-02T12:46:24;25.00;;;16.63;;
3185;SDS011;1604;53.700;10.252;2024-03-02T12:49:28;30.47;;;16.23;;
3185;SDS011;1604;53.700;10.252;2024-03-02T12:52:30;23.37;;;15.17;;
3185;SDS011;1604;53.700;10.252;2024-03-02T12:55:37;22.27;;;15.87;;
3185;SDS011;1604;53.700;10.252;2024-03-02T12:58:39;23.20;;;15.40;;
3185;SDS011;1604;53.700;10.252;2024-03-02T13:01:49;27.17;;;15.10;;
3185;SDS011;1604;53.700;10.252;2024-03-02T13:04:53;19.63;;;14.03;;
3185;SDS011;1604;53.700;10.252;2024-03-02T13:07:55;22.57;;;13.20;;
3185;SDS011;1604;53.700;10.252;2024-03-02T13:10:57;22.10;;;15.00;;
3185;SDS011;1604;53.700;10.252;2024-03-02T13:14:00;17.57;;;12.77;;
3185;SDS011;1604;53.700;10.252;2024-03-02T13:17:02;23.27;;;13.67;;
3185;SDS011;1604;53.700;10.252;2024-03-02T13:20:07;19.67;;;13.37;;
3185;SDS011;1604;53.700;10.252;2024-03-02T13:23:10;18.40;;;12.30;;
3185;SDS011;1604;53.700;10.252;2024-03-02T13:26:12;19.10;;;12.23;;
3185;SDS011;1604;53.700;10.252;2024-03-02T13:29:14;17.50;;;11.40;;
3185;SDS011;1604;53.700;10.252;2024-03-02T13:32:16;23.77;;;13.40;;
3185;SDS011;1604;53.700;10.252;2024-03-02T13:35:22;20.13;;;11.53;;
3185;SDS011;1604;53.700;10.252;2024-03-02T13:38:24;17.33;;;11.37;;
3185;SDS011;1604;53.700;10.252;2024-03-02T13:41:26;16.47;;;13.53;;
3185;SDS011;1604;53.700;10.252;2024-03-02T13:44:28;14.37;;;9.83;;
3185;SDS011;1604;53.700;10.252;2024-03-02T13:47:30;16.20;;;10.03;;
3185;SDS011;1604;53.700;10.252;2024-03-02T13:50:33;16.50;;;10.67;;
3185;SDS011;1604;53.700;10.252;2024-03-02T13:53:35;19.80;;;11.50;;
3185;SDS011;1604;53.700;10.252;2024-03-02T13:56:37;16.93;;;10.77;;
3185;SDS011;1604;53.700;10.252;2024-03-02T13:59:39;17.17;;;9.93;;
3185;SDS011;1604;53.700;10.252;2024-03-02T14:02:42;13.00;;;10.47;;
3185;SDS011;1604;53.700;10.252;2024-03-02T14:05:45;15.33;;;10.73;;
3185;SDS011;1604;53.700;10.252;2024-03-02T14:08:50;12.70;;;10.30;;
3185;SDS011;1604;53.700;10.252;2024-03-02T14:11:52;14.67;;;11.07;;
3185;SDS011;1604;53.700;10.252;2024-03-02T14:14:54;15.47;;;11.20;;
3185;SDS011;1604;53.700;10.252;2024-03-02T14:17:58;17.73;;;11.60;;
3185;SDS011;1604;53.700;10.252;2024-03-02T14:21:01;16.00;;;11.10;;
3185;SDS011;1604;53.700;10.252;2024-03-02T14:24:04;16.43;;;10.93;;
3185;SDS011;1604;53.700;10.252;2024-03-02T14:27:07;17.93;;;11.77;;
3185;SDS011;1604;53.700;10.252;2024-03-02T14:30:09;12.87;;;10.90;;
3185;SDS011;1604;53.700;10.252;2024-03-02T14:33:12;14.87;;;11.20;;
3185;SDS011;1604;53.700;10.252;2024-03-02T14:36:16;16.40;;;12.00;;
3185;SDS011;1604;53.700;10.252;2024-03-02T14:39:18;17.27;;;11.70;;
3185;SDS011;1604;53.700;10.252;2024-03-02T14:42:20;16.83;;;11.57;;
3185;SDS011;1604;53.700;10.252;2024-03-02T14:45:22;17.90;;;12.13;;
3185;SDS011;1604;53.700;10.252;2024-03-02T14:48:24;20.90;;;14.37;;
3185;SDS011;1604;53.700;10.252;2024-03-02T14:51:28;17.70;;;12.47;;
3185;SDS011;1604;53.700;10.252;2024-03-02T14:54:30;21.87;;;14.50;;
3185;SDS011;1604;53.700;10.252;2024-03-02T14:57:35;19.30;;;14.00;;
3185;SDS011;1604;53.700;10.252;2024-03-02T15:00:37;20.50;;;12.90;;
3185;SDS011;1604;53.700;10.252;2024-03-02T15:03:39;20.83;;;12.67;;
3185;SDS011;1604;53.700;10.252;2024-03-02T15:06:43;16.90;;;12.37;;
3185;SDS011;1604;53.700;10.252;2024-03-02T15:09:45;19.20;;;12.77;;
3185;SDS011;1604;53.700;10.252;2024-03-02T15:12:47;20.07;;;11.97;;
3185;SDS011;1604;53.700;10.252;2024-03-02T15:15:49;18.73;;;11.70;;
3185;SDS011;1604;53.700;10.252;2024-03-02T15:18:51;15.50;;;12.03;;
3185;SDS011;1604;53.700;10.252;2024-03-02T15:21:54;14.77;;;12.10;;
3185;SDS011;1604;53.700;10.252;2024-03-02T15:24:56;18.77;;;11.13;;
3185;SDS011;1604;53.700;10.252;2024-03-02T15:27:58;17.93;;;12.43;;
3185;SDS011;1604;53.700;10.252;2024-03-02T15:31:00;18.10;;;11.30;;
3185;SDS011;1604;53.700;10.252;2024-03-02T15:34:02;16.53;;;12.23;;
3185;SDS011;1604;53.700;10.252;2024-03-02T15:37:05;21.10;;;12.30;;
3185;SDS011;1604;53.700;10.252;2024-03-02T15:40:08;16.60;;;11.90;;
3185;SDS011;1604;53.700;10.252;2024-03-02T15:43:11;16.70;;;11.87;;
3185;SDS011;1604;53.700;10.252;2024-03-02T15:46:13;24.63;;;11.40;;
3185;SDS011;1604;53.700;10.252;2024-03-02T15:49:15;14.90;;;10.73;;
3185;SDS011;1604;53.700;10.252;2024-03-02T15:52:18;16.63;;;11.93;;
3185;SDS011;1604;53.700;10.252;2024-03-02T15:55:21;15.70;;;11.00;;
3185;SDS011;1604;53.700;10.252;2024-03-02T15:58:23;18.00;;;12.27;;
3185;SDS011;1604;53.700;10.252;2024-03-02T16:01:25;16.23;;;10.60;;
3185;SDS011;1604;53.700;10.252;2024-03-02T16:04:27;16.07;;;10.87;;
3185;SDS011;1604;53.700;10.252;2024-03-02T16:07:30;17.93;;;10.93;;
3185;SDS011;1604;53.700;10.252;2024-03-02T16:10:33;15.37;;;10.50;;
3185;SDS011;1604;53.700;10.252;2024-03-02T16:13:35;15.03;;;10.80;;
3185;SDS011;1604;53.700;10.252;2024-03-02T16:16:37;16.00;;;11.37;;
3185;SDS011;1604;53.700;10.252;2024-03-02T16:19:38;15.10;;;10.30;;
3185;SDS011;1604;53.700;10.252;2024-03-02T16:22:42;16.17;;;11.10;;
3185;SDS011;1604;53.700;10.252;2024-03-02T16:25:44;19.23;;;12.60;;
3185;SDS011;1604;53.700;10.252;2024-03-02T16:28:46;17.57;;;10.80;;
3185;SDS011;1604;53.700;10.252;2024-03-02T16:31:48;17.57;;;10.77;;
3185;SDS011;1604;53.700;10.252;2024-03-02T16:34:50;13.33;;;10.40;;
3185;SDS011;1604;53.700;10.252;2024-03-02T16:37:53;13.63;;;10.37;;
3185;SDS011;1604;53.700;10.252;2024-03-02T16:40:55;19.23;;;13.10;;
3185;SDS011;1604;53.700;10.252;2024-03-02T16:43:58;19.70;;;12.70;;
3185;SDS011;1604;53.700;10.252;2024-03-02T16:47:00;22.27;;;11.17;;
3185;SDS011;1604;53.700;10.252;2024-03-02T16:50:02;12.80;;;10.53;;
3185;SDS011;1604;53.700;10.252;2024-03-02T16:53:08;19.23;;;13.70;;
3185;SDS011;1604;53.700;10.252;2024-03-02T16:56:10;18.90;;;12.77;;
3185;SDS011;1604;53.700;10.252;2024-03-02T16:59:12;17.00;;;12.37;;
3185;SDS011;1604;53.700;10.252;2024-03-02T17:02:14;22.23;;;13.50;;
3185;SDS011;1604;53.700;10.252;2024-03-02T17:05:16;26.30;;;16.50;;
3185;SDS011;1604;53.700;10.252;2024-03-02T17:08:22;23.47;;;14.90;;
3185;SDS011;1604;53.700;10.252;2024-03-02T17:11:24;27.43;;;14.40;;
3185;SDS011;1604;53.700;10.252;2024-03-02T17:14:26;23.50;;;15.80;;
3185;SDS011;1604;53.700;10.252;2024-03-02T17:17:28;25.60;;;14.20;;
3185;SDS011;1604;53.700;10.252;2024-03-02T17:20:30;20.13;;;13.30;;
3185;SDS011;1604;53.700;10.252;2024-03-02T17:23:33;20.10;;;13.00;;
3185;SDS011;1604;53.700;10.252;2024-03-02T17:26:35;24.67;;;15.60;;
3185;SDS011;1604;53.700;10.252;2024-03-02T17:29:39;22.57;;;15.27;;
3185;SDS011;1604;53.700;10.252;2024-03-02T17:32:41;22.40;;;14.50;;
3185;SDS011;1604;53.700;10.252;2024-03-02T17:35:44;27.10;;;15.53;;
3185;SDS011;1604;53.700;10.252;2024-03-02T17:38:49;22.87;;;14.23;;
3185;SDS011;1604;53.700;10.252;2024-03-02T17:41:51;44.50;;;24.77;;
3185;SDS011;1604;53.700;10.252;2024-03-02T17:44:53;34.67;;;20.63;;
3185;SDS011;1604;53.700;10.252;2024-03-02T17:47:55;27.80;;;16.97;;
3185;SDS011;1604;53.700;10.252;2024-03-02T17:50:57;34.57;;;20.00;;
3185;SDS011;1604;53.700;10.252;2024-03-02T17:54:01;27.83;;;16.50;;
3185;SDS011;1604;53.700;10.252;2024-03-02T17:57:03;30.00;;;17.80;;
3185;SDS011;1604;53.700;10.252;2024-03-02T18:00:05;23.87;;;15.13;;
3185;SDS011;1604;53.700;10.252;2024-03-02T18:03:14;27.63;;;17.20;;
3185;SDS011;1604;53.700;10.252;2024-03-02T18:06:16;28.90;;;18.23;;
3185;SDS011;1604;53.700;10.252;2024-03-02T18:09:19;26.33;;;17.70;;